Time;durP1;ratioP1;P1;durP2;ratioP2;P2;SDS_P1;SDS_P2;PMS_P1;PMS_P2;Temp;Humidity;BMP_temperature;BMP_pressure;BME280_temperature;BME280_humidity;BME280_pressure;Samples;Min_cycle;Max_cycle;Signal;HPM_P1;HPM_P2
2024/02/23 00:00:07;;;;;;;1.08;0.85;;;13.60;61.00;;;;;;6290470;28;20023;-76
2024/02/23 00:03:10;;;;;;;0.30;0.30;;;13.60;61.10;;;;;;6307047;28;20024;-76
2024/02/23 00:06:12;;;;;;;0.90;0.50;;;13.50;61.30;;;;;;6297494;28;20373;-77
2024/02/23 00:09:14;;;;;;;1.02;0.70;;;13.50;61.30;;;;;;6290816;28;20483;-76
2024/02/23 00:12:15;;;;;;;0.45;0.35;;;13.50;61.20;;;;;;6292156;28;20044;-76
2024/02/23 00:15:16;;;;;;;0.98;0.73;;;13.50;61.20;;;;;;6310846;28;20024;-76
2024/02/23 00:18:17;;;;;;;0.63;0.40;;;13.50;61.20;;;;;;6284113;28;20031;-76
2024/02/23 00:21:18;;;;;;;0.60;0.28;;;13.50;61.10;;;;;;6288607;28;20080;-76
2024/02/23 00:24:20;;;;;;;1.13;0.40;;;13.40;60.90;;;;;;6308380;28;20024;-75
2024/02/23 00:27:21;;;;;;;0.40;0.40;;;13.50;61.30;;;;;;6306841;28;20024;-75
2024/02/23 00:30:22;;;;;;;1.58;0.47;;;13.40;61.60;;;;;;6305880;28;20095;-76
2024/02/23 00:33:24;;;;;;;0.63;0.50;;;13.40;61.60;;;;;;6305077;28;20064;-76
2024/02/23 00:36:25;;;;;;;0.85;0.50;;;13.40;61.50;;;;;;6296968;28;20124;-76
2024/02/23 00:39:26;;;;;;;0.10;0.10;;;13.50;61.30;;;;;;6289012;28;20476;-76
2024/02/23 00:42:27;;;;;;;1.17;0.93;;;13.50;61.10;;;;;;6297067;28;20020;-78
2024/02/23 00:45:28;;;;;;;0.88;0.55;;;13.40;61.00;;;;;;6311900;28;20467;-79
2024/02/23 00:48:29;;;;;;;0.47;0.28;;;13.40;61.00;;;;;;6277129;28;20349;-77
2024/02/23 00:51:30;;;;;;;0.28;0.20;;;13.30;61.00;;;;;;6294066;28;20130;-78
2024/02/23 00:54:31;;;;;;;1.30;0.40;;;13.30;61.20;;;;;;6286108;28;20036;-77
2024/02/23 00:57:32;;;;;;;1.65;0.20;;;13.30;61.40;;;;;;6289431;28;20139;-77
2024/02/23 01:00:33;;;;;;;0.98;0.47;;;13.30;61.30;;;;;;6305933;28;20019;-77
2024/02/23 01:03:34;;;;;;;0.35;0.22;;;13.30;61.30;;;;;;6290261;28;20024;-76
2024/02/23 01:06:35;;;;;;;0.43;0.30;;;13.30;61.30;;;;;;6304985;28;20024;-75
2024/02/23 01:13:58;;;;;;;;;;;13.10;61.20;;;;;;6300502;28;20111;-75
2024/02/23 01:16:59;;;;;;;0.28;0.20;;;13.00;61.50;;;;;;6292658;28;19915;-77
2024/02/23 01:20:00;;;;;;;0.20;0.20;;;13.00;61.50;;;;;;6307983;28;20016;-78
2024/02/23 01:23:05;;;;;;;1.10;0.65;;;13.00;61.80;;;;;;6295076;28;20106;-77
2024/02/23 01:26:06;;;;;;;0.70;0.35;;;13.00;61.90;;;;;;6305361;28;20434;-77
2024/02/23 01:29:07;;;;;;;0.20;0.20;;;12.80;61.90;;;;;;6306729;28;20031;-76
2024/02/23 01:32:08;;;;;;;0.90;0.38;;;13.00;62.10;;;;;;6300212;28;20043;-76
2024/02/23 01:35:09;;;;;;;0.55;0.25;;;13.00;62.00;;;;;;6272278;28;20126;-77
2024/02/23 01:38:10;;;;;;;1.67;0.55;;;13.00;61.90;;;;;;6304144;28;20031;-76
2024/02/23 01:41:12;;;;;;;0.30;0.30;;;12.90;61.90;;;;;;6306781;28;20027;-77
2024/02/23 01:44:15;;;;;;;0.13;0.13;;;12.90;61.90;;;;;;6299352;28;20043;-77
2024/02/23 01:47:16;;;;;;;0.25;0.10;;;12.80;61.80;;;;;;6283243;28;20034;-76
2024/02/23 01:50:17;;;;;;;0.25;0.15;;;12.70;61.90;;;;;;6304057;28;20032;-76
2024/02/23 01:53:20;;;;;;;0.47;0.22;;;12.70;62.00;;;;;;6289956;28;20035;-78
2024/02/23 01:56:21;;;;;;;0.10;0.10;;;12.70;61.90;;;;;;6305979;28;20028;-78
2024/02/23 01:59:25;;;;;;;0.60;0.30;;;12.70;61.60;;;;;;6307685;28;20443;-76
2024/02/23 02:02:27;;;;;;;0.10;0.10;;;12.70;61.20;;;;;;6305135;28;20030;-76
2024/02/23 02:05:28;;;;;;;0.10;0.10;;;12.80;61.10;;;;;;6298159;28;20142;-76
2024/02/23 02:08:29;;;;;;;1.45;0.35;;;12.80;60.90;;;;;;6305982;28;20016;-78
2024/02/23 02:11:30;;;;;;;1.00;0.30;;;12.70;60.50;;;;;;6303953;28;20103;-76
2024/02/23 02:14:33;;;;;;;0.10;0.10;;;12.70;60.40;;;;;;6302916;28;20092;-76
2024/02/23 02:17:35;;;;;;;0.10;0.10;;;12.70;60.40;;;;;;6287130;28;20024;-75
2024/02/23 02:20:50;;;;;;;0.68;0.22;;;12.70;60.20;;;;;;6305766;28;20013;-74
2024/02/23 02:23:51;;;;;;;0.40;0.40;;;12.70;59.70;;;;;;6301155;28;20042;-76
2024/02/23 02:26:52;;;;;;;0.25;0.22;;;12.60;59.40;;;;;;6305180;28;20032;-77
2024/02/23 02:29:53;;;;;;;0.47;0.47;;;12.60;59.60;;;;;;6305610;28;20028;-77
2024/02/23 02:32:54;;;;;;;0.15;0.15;;;12.60;59.80;;;;;;6306718;28;20423;-76
2024/02/23 02:35:55;;;;;;;0.10;0.10;;;12.50;59.90;;;;;;6299348;28;20020;-77
2024/02/23 02:38:56;;;;;;;0.40;0.32;;;12.50;60.00;;;;;;6305310;28;20133;-77
2024/02/23 02:41:57;;;;;;;2.75;0.30;;;12.50;60.50;;;;;;6270289;28;20024;-76
2024/02/23 02:44:59;;;;;;;0.28;0.22;;;12.30;60.00;;;;;;6262386;28;20037;-77
2024/02/23 02:48:02;;;;;;;0.05;0.05;;;12.40;60.00;;;;;;6290039;28;20030;-76
2024/02/23 02:51:04;;;;;;;0.47;0.17;;;12.40;60.00;;;;;;6288653;28;20024;-77
2024/02/23 02:54:06;;;;;;;0.52;0.45;;;12.20;60.00;;;;;;6285211;28;20506;-74
2024/02/23 02:57:07;;;;;;;0.15;0.00;;;12.20;60.30;;;;;;6321711;28;20124;-77
2024/02/23 03:00:11;;;;;;;0.22;0.20;;;12.10;60.40;;;;;;6305641;28;20173;-76
2024/02/23 03:03:12;;;;;;;0.10;0.10;;;12.00;60.50;;;;;;6303953;28;20102;-76
2024/02/23 03:06:14;;;;;;;2.42;0.20;;;12.00;60.70;;;;;;6305969;28;20128;-77
2024/02/23 03:09:14;;;;;;;0.00;0.00;;;11.90;60.50;;;;;;6286464;28;20112;-77
2024/02/23 03:12:18;;;;;;;0.20;0.20;;;11.90;60.80;;;;;;6304852;28;20024;-76
2024/02/23 03:15:21;;;;;;;0.10;0.10;;;11.90;60.80;;;;;;6291367;28;20074;-76
2024/02/23 03:18:22;;;;;;;0.03;0.03;;;11.80;60.70;;;;;;6304234;28;20088;-77
2024/02/23 03:21:25;;;;;;;0.10;0.10;;;11.80;60.90;;;;;;6270925;28;20214;-77
2024/02/23 03:24:26;;;;;;;0.28;0.28;;;11.70;61.70;;;;;;6300728;28;20024;-75
2024/02/23 03:27:30;;;;;;;1.40;0.17;;;11.80;60.90;;;;;;6301503;28;20570;-76
2024/02/23 03:30:32;;;;;;;0.13;0.13;;;11.70;60.70;;;;;;6305591;28;20028;-77
2024/02/23 03:33:33;;;;;;;0.10;0.10;;;11.60;60.80;;;;;;6294047;28;20411;-75
2024/02/23 03:36:34;;;;;;;0.30;0.30;;;11.60;60.90;;;;;;6292810;28;20039;-76
2024/02/23 03:39:40;;;;;;;0.35;0.30;;;11.70;61.20;;;;;;6303959;28;20023;-76
2024/02/23 03:42:40;;;;;;;0.65;0.40;;;11.60;61.30;;;;;;6284419;28;20104;-77
2024/02/23 03:45:42;;;;;;;0.85;0.35;;;11.60;61.50;;;;;;6283266;28;20109;-76
2024/02/23 03:48:42;;;;;;;0.45;0.15;;;11.60;61.80;;;;;;6287955;28;20020;-75
2024/02/23 03:51:45;;;;;;;0.10;0.10;;;11.70;61.90;;;;;;6287359;28;20457;-77
2024/02/23 03:54:46;;;;;;;0.10;0.10;;;11.50;61.70;;;;;;6303227;28;20103;-76
2024/02/23 03:57:47;;;;;;;0.28;0.28;;;11.50;61.30;;;;;;6269389;28;20110;-76
2024/02/23 04:00:50;;;;;;;0.65;0.20;;;11.50;61.00;;;;;;6304356;28;20044;-77
2024/02/23 04:03:51;;;;;;;0.17;0.15;;;11.50;60.70;;;;;;6307093;28;20026;-76
2024/02/23 04:06:54;;;;;;;0.70;0.10;;;11.40;60.50;;;;;;6292826;28;20025;-77
2024/02/23 04:09:55;;;;;;;0.10;0.10;;;11.30;60.60;;;;;;6285572;28;20476;-77
2024/02/23 04:12:57;;;;;;;1.55;0.13;;;11.30;60.80;;;;;;6297796;28;20119;-77
2024/02/23 04:16:01;;;;;;;0.38;0.10;;;11.20;60.80;;;;;;6301101;28;20027;-77
2024/02/23 04:19:02;;;;;;;0.10;0.10;;;11.20;60.80;;;;;;6278979;28;20433;-76
2024/02/23 04:22:05;;;;;;;1.15;0.28;;;11.10;60.70;;;;;;6300119;28;20057;-77
2024/02/23 04:25:07;;;;;;;0.10;0.10;;;11.10;60.90;;;;;;6307882;28;20179;-76
2024/02/23 04:28:08;;;;;;;4.43;0.50;;;11.10;61.00;;;;;;6283632;28;20027;-78
2024/02/23 04:31:11;;;;;;;0.08;0.08;;;11.10;61.20;;;;;;6291766;28;20024;-76
2024/02/23 04:34:16;;;;;;;0.45;0.20;;;11.00;61.20;;;;;;6310220;28;20032;-76
2024/02/23 04:37:17;;;;;;;0.50;0.15;;;11.00;61.30;;;;;;6287590;28;20020;-77
2024/02/23 04:40:18;;;;;;;1.45;0.30;;;10.90;61.40;;;;;;6308621;28;20043;-77
2024/02/23 04:43:19;;;;;;;1.65;0.10;;;10.90;61.50;;;;;;6290484;28;20047;-77
2024/02/23 04:46:20;;;;;;;1.08;0.22;;;10.80;61.60;;;;;;6305992;28;20028;-77
2024/02/23 04:49:22;;;;;;;0.30;0.30;;;10.70;61.70;;;;;;6289363;28;20024;-76
2024/02/23 04:52:24;;;;;;;0.77;0.40;;;10.70;61.70;;;;;;6306161;28;20110;-76
2024/02/23 04:55:25;;;;;;;0.10;0.10;;;10.50;61.70;;;;;;6309182;28;20472;-77
2024/02/23 04:58:27;;;;;;;0.10;0.10;;;10.50;61.80;;;;;;6300922;28;20024;-79
2024/02/23 05:01:28;;;;;;;0.25;0.20;;;10.40;62.10;;;;;;6307652;28;20024;-76
2024/02/23 05:04:29;;;;;;;0.10;0.10;;;10.40;62.10;;;;;;6303258;28;20484;-77
2024/02/23 05:07:33;;;;;;;0.10;0.10;;;10.40;62.10;;;;;;6304248;28;20024;-77
2024/02/23 05:10:34;;;;;;;3.10;0.30;;;10.40;62.20;;;;;;6301616;28;20044;-75
2024/02/23 05:13:36;;;;;;;0.70;0.30;;;10.40;62.20;;;;;;6305553;28;20359;-75
2024/02/23 05:16:38;;;;;;;0.10;0.10;;;10.40;62.30;;;;;;6289153;28;20020;-77
2024/02/23 05:19:39;;;;;;;0.20;0.20;;;10.40;62.50;;;;;;6302942;28;20073;-75
2024/02/23 05:22:41;;;;;;;0.25;0.17;;;10.40;62.70;;;;;;6308532;28;20024;-76
2024/02/23 05:25:44;;;;;;;0.43;0.40;;;10.50;62.70;;;;;;6305491;28;20027;-77
2024/02/23 05:28:44;;;;;;;1.13;0.60;;;10.50;62.80;;;;;;6288005;28;20028;-77
2024/02/23 05:31:51;;;;;;;0.20;0.20;;;10.50;62.90;;;;;;6302351;28;20024;-77
2024/02/23 05:34:54;;;;;;;0.00;0.00;;;10.50;62.90;;;;;;6294254;28;20048;-77
2024/02/23 05:37:55;;;;;;;0.73;0.40;;;10.50;62.80;;;;;;6302732;28;20031;-77
2024/02/23 05:40:55;;;;;;;1.00;0.20;;;10.50;62.80;;;;;;6305482;28;20128;-77
2024/02/23 05:43:57;;;;;;;0.20;0.10;;;10.50;62.80;;;;;;6308464;28;20024;-76
2024/02/23 05:46:58;;;;;;;1.45;0.50;;;10.40;62.70;;;;;;6296968;28;20105;-77
2024/02/23 05:49:59;;;;;;;0.30;0.28;;;10.50;62.90;;;;;;6306217;28;20035;-77
2024/02/23 05:53:03;;;;;;;0.85;0.30;;;10.50;62.90;;;;;;6304751;28;20101;-77
2024/02/23 05:56:05;;;;;;;0.30;0.20;;;10.50;63.00;;;;;;6297278;28;20036;-77
2024/02/23 05:59:06;;;;;;;0.45;0.35;;;10.50;63.00;;;;;;6306907;28;20030;-76
2024/02/23 06:02:07;;;;;;;1.02;0.80;;;10.50;63.00;;;;;;6293617;28;20138;-76
2024/02/23 06:05:09;;;;;;;1.13;0.55;;;10.40;62.90;;;;;;6301612;28;20508;-77
2024/02/23 06:08:10;;;;;;;1.45;0.40;;;10.40;63.00;;;;;;6306447;28;20507;-77
2024/02/23 06:11:11;;;;;;;5.45;0.82;;;10.40;62.90;;;;;;6299499;28;20028;-78
2024/02/23 06:14:12;;;;;;;4.55;0.70;;;10.30;62.80;;;;;;6299125;28;20132;-78
2024/02/23 06:17:13;;;;;;;1.13;0.63;;;10.20;62.80;;;;;;6295681;28;20440;-76
2024/02/23 06:20:14;;;;;;;3.10;0.80;;;10.00;62.90;;;;;;6289929;28;20436;-76
2024/02/23 06:23:17;;;;;;;0.40;0.40;;;9.90;63.00;;;;;;6304509;28;20032;-76
2024/02/23 06:26:18;;;;;;;2.22;1.05;;;9.90;63.20;;;;;;6338350;27;20016;-77
2024/02/23 06:29:19;;;;;;;2.58;0.65;;;9.80;63.20;;;;;;6303314;28;20114;-77
2024/02/23 06:32:20;;;;;;;0.82;0.50;;;9.70;63.30;;;;;;6304530;28;20342;-77
2024/02/23 06:35:23;;;;;;;1.02;0.30;;;9.70;63.50;;;;;;6296884;28;20566;-78
2024/02/23 06:38:25;;;;;;;1.65;0.85;;;9.70;63.60;;;;;;6295148;28;20016;-77
2024/02/23 06:41:26;;;;;;;7.47;3.00;;;9.70;63.60;;;;;;6307110;28;20034;-77
2024/02/23 06:44:27;;;;;;;42.05;14.15;;;9.70;63.70;;;;;;6305170;28;20456;-77
2024/02/23 06:47:30;;;;;;;5.93;2.70;;;9.60;63.70;;;;;;6296946;28;20036;-78
2024/02/23 06:50:31;;;;;;;6.07;2.28;;;9.70;63.80;;;;;;6295613;28;20129;-78
2024/02/23 06:53:33;;;;;;;2.70;1.33;;;9.80;64.00;;;;;;6307133;28;20448;-77
2024/02/23 06:56:36;;;;;;;1.02;0.80;;;9.80;64.00;;;;;;6299248;28;20073;-77
2024/02/23 06:59:37;;;;;;;2.10;0.80;;;9.80;64.20;;;;;;6284643;28;20126;-76
2024/02/23 07:02:38;;;;;;;2.05;0.75;;;9.90;64.10;;;;;;6302265;28;20118;-77
2024/02/23 07:05:39;;;;;;;4.85;0.55;;;9.90;64.10;;;;;;6304098;28;20455;-77
2024/02/23 07:08:41;;;;;;;0.75;0.73;;;9.90;64.00;;;;;;6296178;28;20105;-78
2024/02/23 07:11:43;;;;;;;0.95;0.68;;;10.00;64.00;;;;;;6289785;28;20092;-79
2024/02/23 07:14:44;;;;;;;2.58;1.02;;;10.00;64.00;;;;;;6295244;28;20027;-77
2024/02/23 07:17:46;;;;;;;1.58;0.82;;;9.90;64.00;;;;;;6292817;28;20116;-80
2024/02/23 07:20:48;;;;;;;0.95;0.85;;;9.90;64.00;;;;;;6302024;28;20455;-78
2024/02/23 07:23:49;;;;;;;3.10;1.45;;;9.80;63.90;;;;;;6302032;28;20082;-79
2024/02/23 07:26:49;;;;;;;3.25;1.08;;;9.80;64.10;;;;;;6304386;28;20020;-74
2024/02/23 07:29:50;;;;;;;1.77;1.10;;;9.90;64.20;;;;;;6284954;28;20058;-78
2024/02/23 07:32:51;;;;;;;5.30;1.30;;;9.90;64.40;;;;;;6290370;28;20094;-78
2024/02/23 07:35:52;;;;;;;1.33;0.85;;;9.90;64.50;;;;;;6294403;28;20086;-78
2024/02/23 07:38:53;;;;;;;1.23;0.73;;;10.00;64.70;;;;;;6297100;28;20487;-79
2024/02/23 07:41:55;;;;;;;1.58;0.85;;;10.00;64.80;;;;;;6302062;28;20047;-76
2024/02/23 07:44:56;;;;;;;4.13;1.05;;;10.00;64.70;;;;;;6299363;28;20031;-77
2024/02/23 07:47:57;;;;;;;2.20;1.00;;;10.10;64.60;;;;;;6306193;28;20031;-78
2024/02/23 07:50:58;;;;;;;2.50;1.20;;;10.10;64.40;;;;;;6285059;28;20082;-77
2024/02/23 07:54:01;;;;;;;0.85;0.80;;;10.10;64.30;;;;;;6298674;28;20134;-76
2024/02/23 07:57:04;;;;;;;1.30;1.00;;;10.20;64.20;;;;;;6293180;28;20074;-77
2024/02/23 08:00:09;;;;;;;8.02;1.58;;;10.30;64.10;;;;;;6249830;28;20476;-78
2024/02/23 08:03:14;;;;;;;6.00;1.05;;;10.30;63.80;;;;;;6292685;28;20184;-77
2024/02/23 08:06:15;;;;;;;0.95;0.85;;;10.30;63.50;;;;;;6305317;28;20097;-78
2024/02/23 08:09:16;;;;;;;2.13;0.80;;;10.30;63.50;;;;;;6311117;28;20036;-77
2024/02/23 08:12:17;;;;;;;1.10;0.80;;;10.40;63.50;;;;;;6304522;28;20020;-78
2024/02/23 08:15:18;;;;;;;1.45;1.00;;;10.50;63.40;;;;;;6307122;28;20056;-76
2024/02/23 08:18:19;;;;;;;3.25;1.10;;;10.50;63.30;;;;;;6308862;28;20031;-77
2024/02/23 08:21:21;;;;;;;1.33;0.73;;;10.70;63.20;;;;;;6307520;28;20469;-78
2024/02/23 08:24:23;;;;;;;3.72;1.00;;;10.60;62.90;;;;;;6310906;28;20229;-78
2024/02/23 08:27:24;;;;;;;2.38;1.25;;;10.70;62.90;;;;;;6283618;28;20036;-76
2024/02/23 08:30:25;;;;;;;1.75;1.25;;;10.80;62.80;;;;;;6300109;28;20024;-76
2024/02/23 08:33:25;;;;;;;4.45;1.00;;;10.90;62.50;;;;;;6294341;28;20396;-78
2024/02/23 08:36:27;;;;;;;2.90;0.98;;;11.00;62.30;;;;;;6300746;28;20028;-76
2024/02/23 08:39:28;;;;;;;4.90;2.20;;;11.10;62.10;;;;;;6293791;28;20062;-77
2024/02/23 08:42:29;;;;;;;2.60;1.55;;;11.20;61.80;;;;;;6309430;28;20145;-78
2024/02/23 08:45:30;;;;;;;3.63;1.70;;;11.30;61.30;;;;;;6309471;28;20077;-76
2024/02/23 08:48:31;;;;;;;3.03;1.77;;;11.40;60.90;;;;;;6272188;28;20047;-77
2024/02/23 08:51:32;;;;;;;2.45;1.80;;;11.40;60.90;;;;;;6285583;28;20065;-76
2024/02/23 08:54:33;;;;;;;3.08;1.63;;;11.60;60.80;;;;;;6290890;28;20522;-78
2024/02/23 08:57:35;;;;;;;9.40;4.40;;;11.80;60.50;;;;;;6294829;28;20638;-77
2024/02/23 09:00:37;;;;;;;2.58;1.88;;;11.90;59.60;;;;;;6300204;28;20020;-78
2024/02/23 09:03:38;;;;;;;3.25;1.85;;;12.00;59.10;;;;;;6280533;28;20123;-78
2024/02/23 09:06:39;;;;;;;4.07;2.05;;;12.10;58.90;;;;;;6301020;28;20570;-78
2024/02/23 09:09:41;;;;;;;7.47;2.35;;;12.20;58.90;;;;;;6298394;28;20025;-78
2024/02/23 09:12:42;;;;;;;4.70;2.30;;;12.30;58.60;;;;;;6283667;28;20043;-78
2024/02/23 09:15:45;;;;;;;2.88;1.80;;;12.30;58.50;;;;;;6298156;28;20032;-76
2024/02/23 09:18:47;;;;;;;4.38;3.08;;;12.40;58.30;;;;;;6300140;28;20332;-76
2024/02/23 09:21:49;;;;;;;5.13;2.78;;;12.50;58.20;;;;;;6305297;28;20032;-78
2024/02/23 09:24:50;;;;;;;6.82;3.28;;;12.60;58.00;;;;;;6301006;28;20016;-77
2024/02/23 09:27:51;;;;;;;7.53;3.50;;;12.70;57.60;;;;;;6306019;28;20032;-78
2024/02/23 09:30:52;;;;;;;5.88;4.18;;;12.70;57.50;;;;;;6296089;28;20032;-76
2024/02/23 09:33:57;;;;;;;5.95;3.83;;;12.70;57.50;;;;;;6284314;28;20043;-78
2024/02/23 09:36:58;;;;;;;6.90;3.80;;;12.70;57.10;;;;;;6301356;28;20062;-77
2024/02/23 09:39:59;;;;;;;5.57;3.70;;;12.70;57.00;;;;;;6309065;28;20114;-78
2024/02/23 09:43:01;;;;;;;9.32;3.13;;;12.70;56.70;;;;;;6307471;28;20032;-79
2024/02/23 09:46:04;;;;;;;6.95;1.60;;;12.70;56.70;;;;;;6295962;28;20093;-77
2024/02/23 09:49:08;;;;;;;2.15;0.98;;;12.70;56.70;;;;;;6304677;28;20063;-76
2024/02/23 09:52:10;;;;;;;1.67;1.20;;;12.80;56.60;;;;;;6290331;28;20097;-78
2024/02/23 09:55:11;;;;;;;2.80;1.20;;;12.90;56.30;;;;;;6304932;28;20512;-78
2024/02/23 09:58:16;;;;;;;0.90;0.73;;;12.90;55.80;;;;;;6305261;28;20099;-77
2024/02/23 10:01:30;;;;;;;2.78;0.95;;;12.90;55.70;;;;;;6294103;28;20477;-76
2024/02/23 10:04:33;;;;;;;2.70;0.88;;;13.00;55.00;;;;;;6279503;28;20039;-77
2024/02/23 10:07:34;;;;;;;1.20;0.75;;;13.00;54.70;;;;;;6302707;28;20020;-78
2024/02/23 10:10:36;;;;;;;0.80;0.70;;;12.90;54.40;;;;;;6295714;28;20016;-77
2024/02/23 10:13:36;;;;;;;2.80;0.75;;;12.90;54.50;;;;;;6305127;28;20099;-77
2024/02/23 10:16:39;;;;;;;3.30;0.90;;;12.90;54.60;;;;;;6300745;28;20032;-77
2024/02/23 10:19:41;;;;;;;2.15;1.40;;;13.00;54.50;;;;;;6289837;28;20104;-77
2024/02/23 10:22:41;;;;;;;0.80;0.50;;;13.10;54.40;;;;;;6298109;28;20024;-77
2024/02/23 10:25:43;;;;;;;4.68;1.48;;;13.20;53.90;;;;;;6301362;28;20074;-77
2024/02/23 10:28:48;;;;;;;4.53;1.85;;;13.20;53.30;;;;;;6287923;28;20448;-79
2024/02/23 10:31:52;;;;;;;0.85;0.52;;;13.30;52.90;;;;;;6287398;28;20099;-76
2024/02/23 10:34:59;;;;;;;1.70;0.88;;;13.60;52.30;;;;;;6308255;28;20024;-77
2024/02/23 10:38:04;;;;;;;1.15;0.80;;;13.90;51.40;;;;;;6303595;28;20024;-78
2024/02/23 10:41:06;;;;;;;3.10;1.25;;;14.20;51.30;;;;;;6300024;28;20051;-78
2024/02/23 10:44:08;;;;;;;1.52;0.80;;;14.50;50.30;;;;;;6298636;28;20024;-77
2024/02/23 10:47:11;;;;;;;1.60;0.68;;;14.70;49.70;;;;;;6307913;28;20041;-79
2024/02/23 10:50:17;;;;;;;0.95;0.47;;;14.90;49.40;;;;;;6308024;28;20024;-78
2024/02/23 10:53:20;;;;;;;1.77;0.80;;;15.10;49.30;;;;;;6305715;28;20028;-78
2024/02/23 10:56:24;;;;;;;1.35;0.82;;;15.30;49.00;;;;;;6304346;28;20048;-77
2024/02/23 10:59:26;;;;;;;7.05;2.10;;;15.50;47.90;;;;;;6293014;28;20020;-77
2024/02/23 11:02:30;;;;;;;2.55;1.25;;;15.50;47.70;;;;;;6281233;28;20123;-78
2024/02/23 11:05:32;;;;;;;2.28;0.73;;;15.70;48.00;;;;;;6296320;28;20020;-78
2024/02/23 11:08:36;;;;;;;0.95;0.60;;;16.00;47.70;;;;;;6289082;28;20440;-77
2024/02/23 11:11:37;;;;;;;2.13;0.70;;;16.20;46.20;;;;;;6292794;28;20067;-76
2024/02/23 11:14:45;;;;;;;1.95;0.60;;;16.30;45.70;;;;;;6298643;28;20383;-77
2024/02/23 11:17:50;;;;;;;2.53;1.17;;;16.50;45.40;;;;;;6267170;28;20526;-77
2024/02/23 11:21:00;;;;;;;5.03;0.70;;;16.70;44.80;;;;;;6319403;28;20102;-77
2024/02/23 11:24:05;;;;;;;2.47;0.80;;;17.00;43.40;;;;;;6318098;28;20027;-76
2024/02/23 11:27:10;;;;;;;4.93;1.27;;;17.30;43.10;;;;;;6337314;27;20023;-77
2024/02/23 11:30:11;;;;;;;4.78;1.75;;;17.80;42.40;;;;;;6301830;28;20028;-76
2024/02/23 11:33:12;;;;;;;8.43;1.58;;;18.30;41.50;;;;;;6300806;28;20036;-77
2024/02/23 11:36:23;;;;;;;2.25;0.98;;;18.90;40.30;;;;;;6314502;28;20050;-77
2024/02/23 11:39:26;;;;;;;6.63;1.40;;;19.50;39.80;;;;;;6291325;28;20027;-77
2024/02/23 11:42:27;;;;;;;4.70;1.00;;;20.10;38.30;;;;;;6310720;28;20120;-77
2024/02/23 11:45:30;;;;;;;2.20;1.10;;;20.50;36.60;;;;;;6311489;28;20097;-77
2024/02/23 11:48:31;;;;;;;3.83;1.40;;;20.80;35.30;;;;;;6302187;28;20348;-78
2024/02/23 11:51:33;;;;;;;5.82;1.80;;;21.00;35.10;;;;;;6306899;28;20027;-77
2024/02/23 11:54:34;;;;;;;2.13;0.82;;;21.50;34.70;;;;;;6302145;28;20520;-77
2024/02/23 11:57:35;;;;;;;3.28;1.50;;;22.20;33.70;;;;;;6308376;28;20100;-77
2024/02/23 12:00:37;;;;;;;2.60;1.30;;;22.80;32.10;;;;;;6304672;28;20058;-77
2024/02/23 12:03:39;;;;;;;1.45;1.00;;;23.40;30.30;;;;;;6310624;28;20460;-76
2024/02/23 12:06:41;;;;;;;2.33;0.80;;;24.20;29.90;;;;;;6304598;28;20119;-77
2024/02/23 12:09:43;;;;;;;1.90;0.52;;;24.90;29.10;;;;;;6302894;28;20059;-77
2024/02/23 12:12:45;;;;;;;2.03;0.55;;;24.70;28.50;;;;;;6301804;28;20328;-78
2024/02/23 12:15:48;;;;;;;1.45;0.63;;;24.30;28.90;;;;;;6292909;28;20023;-78
2024/02/23 12:18:57;;;;;;;1.58;0.88;;;23.80;29.10;;;;;;6287925;28;20140;-78
2024/02/23 12:22:02;;;;;;;4.35;1.35;;;23.50;29.00;;;;;;6292075;28;20051;-79
2024/02/23 12:25:03;;;;;;;1.85;1.02;;;23.40;28.90;;;;;;6274248;28;20107;-78
2024/02/23 12:28:04;;;;;;;6.05;1.27;;;23.60;28.10;;;;;;6295640;28;20468;-76
2024/02/23 12:31:06;;;;;;;1.63;1.00;;;23.30;28.20;;;;;;6308151;28;20024;-78
2024/02/23 12:34:13;;;;;;;3.40;0.60;;;22.90;28.70;;;;;;6307423;28;20051;-78
2024/02/23 12:37:17;;;;;;;3.33;0.77;;;22.30;28.80;;;;;;6292745;28;20093;-77
2024/02/23 12:40:19;;;;;;;1.08;0.63;;;21.80;29.50;;;;;;6283456;28;20076;-77
2024/02/23 12:43:23;;;;;;;4.00;0.43;;;21.40;29.90;;;;;;6306855;28;20111;-78
2024/02/23 12:46:24;;;;;;;0.98;0.45;;;21.20;30.00;;;;;;6306745;28;20105;-77
2024/02/23 12:49:25;;;;;;;1.10;0.80;;;20.80;30.30;;;;;;6274741;28;20637;-77
2024/02/23 12:52:26;;;;;;;1.48;0.52;;;20.60;30.80;;;;;;6297529;28;20023;-77
2024/02/23 12:55:27;;;;;;;3.13;1.00;;;20.50;30.60;;;;;;6305449;28;20047;-78
2024/02/23 12:58:30;;;;;;;1.23;0.50;;;20.30;30.60;;;;;;6305107;28;20373;-78
2024/02/23 13:01:34;;;;;;;1.63;0.90;;;20.20;30.70;;;;;;6307514;28;20023;-78
2024/02/23 13:04:36;;;;;;;1.00;0.40;;;20.10;30.90;;;;;;6301752;28;20032;-76
2024/02/23 13:07:42;;;;;;;1.02;0.65;;;20.10;31.00;;;;;;6301621;28;20016;-78
2024/02/23 13:10:45;;;;;;;4.32;0.70;;;20.00;31.00;;;;;;6289607;28;20024;-78
2024/02/23 13:13:45;;;;;;;0.88;0.82;;;19.70;31.20;;;;;;6302469;28;20028;-78
2024/02/23 13:16:47;;;;;;;0.98;0.40;;;19.60;31.60;;;;;;6288367;28;20024;-77
2024/02/23 13:19:48;;;;;;;2.30;0.45;;;19.40;31.60;;;;;;6298932;28;20040;-77
2024/02/23 13:22:50;;;;;;;1.27;0.80;;;19.20;31.40;;;;;;6295412;28;20396;-77
2024/02/23 13:25:51;;;;;;;1.30;0.60;;;18.90;31.50;;;;;;6305833;28;20012;-77
2024/02/23 13:28:53;;;;;;;1.27;0.70;;;18.80;31.80;;;;;;6295465;28;20120;-77
2024/02/23 13:31:54;;;;;;;1.30;0.52;;;18.60;32.20;;;;;;6320032;28;20281;-77
2024/02/23 13:34:55;;;;;;;2.28;0.38;;;18.40;32.50;;;;;;6289350;28;20482;-78
2024/02/23 13:37:57;;;;;;;0.30;0.30;;;18.30;32.50;;;;;;6307530;28;20017;-77
2024/02/23 13:40:58;;;;;;;3.55;0.30;;;18.20;32.40;;;;;;6296638;28;20231;-77
2024/02/23 13:43:59;;;;;;;0.47;0.40;;;18.10;32.40;;;;;;6303508;28;20545;-77
2024/02/23 13:47:03;;;;;;;0.90;0.40;;;18.00;32.50;;;;;;6289059;28;20062;-78
2024/02/23 13:50:05;;;;;;;4.63;0.68;;;17.90;32.60;;;;;;6296651;28;20487;-79
2024/02/23 13:53:06;;;;;;;0.50;0.50;;;17.90;32.20;;;;;;6290746;28;20353;-77
2024/02/23 13:56:07;;;;;;;0.80;0.45;;;17.90;31.90;;;;;;6305125;28;20044;-79
2024/02/23 13:59:08;;;;;;;0.47;0.38;;;17.80;32.00;;;;;;6291415;28;20024;-78
2024/02/23 14:02:09;;;;;;;0.73;0.50;;;17.60;32.20;;;;;;6305101;28;20035;-78
2024/02/23 14:05:11;;;;;;;1.00;0.60;;;17.50;32.60;;;;;;6306609;28;20028;-77
2024/02/23 14:08:13;;;;;;;2.08;0.57;;;17.40;33.00;;;;;;6306931;28;20020;-79
2024/02/23 14:11:16;;;;;;;1.35;0.40;;;17.20;33.40;;;;;;6301084;28;20712;-77
2024/02/23 14:14:17;;;;;;;1.77;0.30;;;17.20;33.50;;;;;;6294024;28;20067;-78
2024/02/23 14:17:18;;;;;;;1.48;0.55;;;17.20;33.60;;;;;;6294608;28;20032;-80
2024/02/23 14:20:20;;;;;;;4.03;1.70;;;17.20;33.70;;;;;;6296483;28;20476;-76
2024/02/23 14:23:23;;;;;;;2.15;0.80;;;17.30;33.90;;;;;;6298778;28;20036;-77
2024/02/23 14:26:24;;;;;;;1.45;0.57;;;17.30;33.90;;;;;;6304102;28;20012;-77
2024/02/23 14:29:25;;;;;;;1.08;0.55;;;17.40;33.80;;;;;;6307687;28;20120;-77
2024/02/23 14:32:26;;;;;;;0.47;0.28;;;17.40;33.90;;;;;;6286144;28;20135;-78
2024/02/23 14:35:27;;;;;;;2.05;0.52;;;17.40;33.90;;;;;;6284816;28;20034;-78
2024/02/23 14:38:29;;;;;;;1.25;0.30;;;17.30;34.00;;;;;;6306753;28;20071;-77
2024/02/23 14:41:32;;;;;;;1.60;0.50;;;17.30;34.10;;;;;;6302132;28;20016;-77
2024/02/23 14:44:32;;;;;;;1.70;0.55;;;17.30;34.10;;;;;;6305726;28;20096;-78
2024/02/23 14:47:34;;;;;;;2.38;0.38;;;17.30;34.10;;;;;;6299557;28;20020;-77
2024/02/23 14:50:36;;;;;;;0.52;0.50;;;17.30;34.10;;;;;;6299904;28;20020;-75
2024/02/23 14:53:38;;;;;;;0.85;0.38;;;17.40;34.20;;;;;;6300520;28;20506;-78
2024/02/23 14:56:39;;;;;;;0.70;0.30;;;17.40;34.00;;;;;;6307642;28;20134;-77
2024/02/23 14:59:46;;;;;;;1.25;0.25;;;17.30;34.10;;;;;;6302157;28;20553;-77
2024/02/23 15:02:47;;;;;;;1.40;0.45;;;17.10;34.40;;;;;;6296655;28;20115;-78
2024/02/23 15:05:49;;;;;;;0.35;0.35;;;17.00;34.80;;;;;;6282154;28;20024;-77
2024/02/23 15:08:50;;;;;;;3.15;0.63;;;16.80;35.20;;;;;;6305594;28;20020;-78
2024/02/23 15:11:51;;;;;;;1.27;0.25;;;16.70;35.50;;;;;;6300749;28;20035;-78
2024/02/23 15:14:54;;;;;;;1.85;0.60;;;16.60;35.70;;;;;;6293905;28;20083;-77
2024/02/23 15:17:54;;;;;;;0.75;0.60;;;16.60;36.00;;;;;;6287988;28;20039;-77
2024/02/23 15:20:55;;;;;;;1.13;0.55;;;16.60;35.90;;;;;;6295201;28;20107;-77
2024/02/23 15:23:56;;;;;;;0.80;0.57;;;16.60;35.80;;;;;;6304443;28;20072;-78
2024/02/23 15:26:57;;;;;;;3.38;0.55;;;16.60;35.80;;;;;;6298294;28;20069;-77
2024/02/23 15:29:58;;;;;;;0.50;0.30;;;16.60;35.50;;;;;;6285301;28;20081;-78
2024/02/23 15:32:59;;;;;;;4.47;0.75;;;16.70;35.40;;;;;;6277362;28;20047;-78
2024/02/23 15:36:04;;;;;;;3.25;1.35;;;16.70;35.30;;;;;;6299269;28;20031;-78
2024/02/23 15:39:06;;;;;;;0.17;0.17;;;16.70;35.20;;;;;;6283082;28;20073;-77
2024/02/23 15:42:07;;;;;;;1.08;0.30;;;16.60;35.30;;;;;;6278957;28;20120;-77
2024/02/23 15:45:09;;;;;;;1.30;0.40;;;16.50;35.50;;;;;;6298293;28;20476;-76
2024/02/23 15:48:13;;;;;;;0.52;0.30;;;16.40;35.80;;;;;;6300180;28;20119;-76
2024/02/23 15:51:14;;;;;;;1.20;0.50;;;16.40;36.00;;;;;;6298685;28;20097;-79